Time;durP1;ratioP1;P1;durP2;ratioP2;P2;SDS_P1;SDS_P2;PMS_P1;PMS_P2;Temp;Humidity;BMP_temperature;BMP_pressure;BME280_temperature;BME280_humidity;BME280_pressure;Samples;Min_cycle;Max_cycle;Signal;HPM_P1;HPM_P2
2023/09/01 00:01:36;;;;;;;;;;;;;;;19.44;56.99;100136.28;4937813;28;6948;-70
2023/09/01 00:04:02;;;;;;;;;;;;;;;19.43;56.54;100135.41;4937096;28;7134;-70
2023/09/01 00:06:28;;;;;;;;;;;;;;;19.45;56.62;100143.22;4959535;28;7329;-71
2023/09/01 00:08:53;;;;;;;;;;;;;;;19.46;56.21;100141.47;4954121;28;6955;-70
2023/09/01 00:11:20;;;;;;;;;;;;;;;19.47;56.39;100141.50;4939883;28;7130;-71
2023/09/01 00:13:45;;;;;;;;;;;;;;;19.48;56.28;100142.38;4958738;28;6824;-71
2023/09/01 00:16:11;;;;;;;;;;;;;;;19.51;56.67;100143.28;4955917;28;7238;-71
2023/09/01 00:18:36;;;;;;;;;;;;;;;19.53;56.46;100141.56;4973622;28;7134;-71
2023/09/01 00:21:05;;;;;;;;;;;;;;;19.54;56.22;100143.28;4960924;28;6952;-70
2023/09/01 00:23:31;;;;;;;;;;;;;;;19.55;56.75;100138.94;4974539;28;6812;-71
2023/09/01 00:25:58;;;;;;;;;;;;;;;19.54;56.45;100132.91;4946380;28;7215;-71
2023/09/01 00:28:24;;;;;;;;;;;;;;;19.53;56.45;100131.16;4940800;28;7091;-70
2023/09/01 00:30:56;;;;;;;;;;;;;;;19.49;56.18;100129.38;4925482;28;6973;-71
2023/09/01 00:33:24;;;;;;;;;;;;;;;19.46;56.30;100124.16;4946854;28;6811;-70
2023/09/01 00:35:51;;;;;;;;;;;;;;;19.41;57.16;100125.84;4933685;28;7210;-70
2023/09/01 00:38:16;;;;;;;;;;;;;;;19.36;56.52;100132.75;4943083;28;7018;-71
2023/09/01 00:40:42;;;;;;;;;;;;;;;19.33;56.86;100120.63;4941191;28;7167;-71
2023/09/01 00:43:07;;;;;;;;;;;;;;;19.28;57.06;100112.78;4952142;28;6976;-71
2023/09/01 00:45:36;;;;;;;;;;;;;;;19.25;57.61;100115.38;4943467;28;7199;-70
2023/09/01 00:48:02;;;;;;;;;;;;;;;19.22;57.50;100110.16;4957784;28;7380;-72
2023/09/01 00:50:28;;;;;;;;;;;;;;;19.18;57.05;100108.38;4942777;28;7230;-70
2023/09/01 00:52:54;;;;;;;;;;;;;;;19.17;57.23;100105.75;4943907;28;6864;-71
2023/09/01 00:55:20;;;;;;;;;;;;;;;19.11;57.20;100103.97;4944137;28;7233;-71
2023/09/01 00:57:46;;;;;;;;;;;;;;;19.07;57.63;100115.22;4976848;28;6791;-71
2023/09/01 01:00:11;;;;;;;;;;;;;;;19.03;57.90;100118.66;4939189;28;8361;-71
2023/09/01 01:02:37;;;;;;;;;;;;;;;18.98;58.26;100116.84;4940527;28;6791;-71
2023/09/01 01:05:14;;;;;;;;;;;;;;;18.97;57.98;100112.50;4944401;28;7002;-70
2023/09/01 01:07:50;;;;;;;;;;;;;;;18.97;58.45;100112.50;4935197;28;6994;-71
2023/09/01 01:10:21;;;;;;;;;;;;;;;18.98;58.10;100113.38;4976221;28;6837;-69
2023/09/01 01:12:54;;;;;;;;;;;;;;;18.95;58.49;100110.75;4946304;28;6804;-70
2023/09/01 01:15:22;;;;;;;;;;;;;;;18.92;58.31;100118.50;4939728;28;7054;-69
2023/09/01 01:17:49;;;;;;;;;;;;;;;18.86;58.75;100112.41;4961546;28;6876;-71
2023/09/01 01:20:27;;;;;;;;;;;;;;;18.83;58.81;100116.69;4941636;28;6943;-70
2023/09/01 01:23:07;;;;;;;;;;;;;;;18.76;59.17;100102.78;4946736;28;7174;-70
2023/09/01 01:25:33;;;;;;;;;;;;;;;18.72;59.01;100101.88;4946050;28;6987;-71
2023/09/01 01:28:06;;;;;;;;;;;;;;;18.71;59.49;100100.16;4943484;28;6808;-70
2023/09/01 01:30:32;;;;;;;;;;;;;;;18.72;59.33;100108.81;4944629;28;7606;-70
2023/09/01 01:32:58;;;;;;;;;;;;;;;18.70;59.71;100107.94;4942902;28;6816;-70
2023/09/01 01:35:32;;;;;;;;;;;;;;;18.68;59.80;100118.28;4943213;28;7749;-71
2023/09/01 01:38:08;;;;;;;;;;;;;;;18.64;60.26;100113.94;4957950;28;7247;-70
2023/09/01 01:40:37;;;;;;;;;;;;;;;18.65;60.12;100110.47;4958185;28;7246;-69
2023/09/01 01:43:07;;;;;;;;;;;;;;;18.66;60.21;100108.75;4943109;28;6990;-71
2023/09/01 01:45:34;;;;;;;;;;;;;;;18.68;59.87;100107.03;4943286;28;7187;-70
2023/09/01 01:48:00;;;;;;;;;;;;;;;18.70;60.25;100100.16;4960780;28;7041;-70
2023/09/01 01:50:25;;;;;;;;;;;;;;;18.72;60.20;100107.06;4958657;28;7957;-71
2023/09/01 01:52:51;;;;;;;;;;;;;;;18.74;60.03;100107.97;4959487;28;7050;-70
2023/09/01 01:55:16;;;;;;;;;;;;;;;18.78;60.22;100105.41;4941747;28;6936;-70
2023/09/01 01:57:42;;;;;;;;;;;;;;;18.81;60.37;100114.09;4941418;28;6788;-69
2023/09/01 02:00:11;;;;;;;;;;;;;;;18.85;60.50;100110.66;4975795;28;6800;-70
2023/09/01 02:02:39;;;;;;;;;;;;;;;18.88;60.20;100107.22;4957217;28;7019;-71
2023/09/01 02:05:06;;;;;;;;;;;;;;;18.89;60.03;100111.56;4944147;28;6789;-71
2023/09/01 02:07:35;;;;;;;;;;;;;;;18.90;60.62;100108.09;4940753;28;7026;-71
2023/09/01 02:10:01;;;;;;;;;;;;;;;18.92;60.71;100108.97;4943701;28;6800;-71
2023/09/01 02:12:27;;;;;;;;;;;;;;;18.94;60.64;100104.69;4954140;28;7227;-70
2023/09/01 02:14:52;;;;;;;;;;;;;;;18.96;60.71;100108.16;4944124;28;6772;-70
2023/09/01 02:17:17;;;;;;;;;;;;;;;18.97;60.51;100099.53;4945818;28;6851;-70
2023/09/01 02:19:43;;;;;;;;;;;;;;;18.99;60.61;100095.19;4942302;28;6799;-69
2023/09/01 02:22:08;;;;;;;;;;;;;;;19.01;60.73;100088.31;4944905;28;7167;-71
2023/09/01 02:24:34;;;;;;;;;;;;;;;19.01;60.79;100090.06;4945091;28;6772;-70
2023/09/01 02:26:59;;;;;;;;;;;;;;;19.01;60.24;100085.72;4938902;28;6809;-68
2023/09/01 02:29:25;;;;;;;;;;;;;;;19.00;60.32;100086.59;4942414;28;9391;-72
2023/09/01 02:31:53;;;;;;;;;;;;;;;18.98;60.73;100090.03;4944583;28;7069;-74
2023/09/01 02:34:18;;;;;;;;;;;;;;;18.96;60.48;100095.19;4975767;28;6800;-75
2023/09/01 02:36:44;;;;;;;;;;;;;;;18.93;60.42;100095.16;4974532;28;7264;-74
2023/09/01 02:39:09;;;;;;;;;;;;;;;18.90;60.58;100087.34;4962310;28;7092;-76
2023/09/01 02:41:35;;;;;;;;;;;;;;;18.91;60.80;100096.00;4947015;28;6788;-74
2023/09/01 02:44:00;;;;;;;;;;;;;;;18.90;60.96;100087.34;4939746;28;7215;-74
2023/09/01 02:46:26;;;;;;;;;;;;;;;18.90;61.04;100087.34;4976077;28;6792;-71
2023/09/01 02:48:52;;;;;;;;;;;;;;;18.91;60.74;100089.06;4971662;28;7164;-69
2023/09/01 02:51:17;;;;;;;;;;;;;;;18.90;60.68;100089.94;4938334;28;7055;-73
2023/09/01 02:53:43;;;;;;;;;;;;;;;18.91;60.92;100081.28;4942983;28;7543;-73
2023/09/01 02:56:08;;;;;;;;;;;;;;;18.92;61.52;100076.97;4960697;28;7030;-73
2023/09/01 02:58:34;;;;;;;;;;;;;;;18.93;61.38;100083.91;4976375;28;6857;-74
2023/09/01 03:01:10;;;;;;;;;;;;;;;18.95;60.84;100084.78;4940580;28;6796;-74
2023/09/01 03:03:37;;;;;;;;;;;;;;;18.94;61.42;100078.72;4974184;28;6876;-73
2023/09/01 03:06:05;;;;;;;;;;;;;;;18.97;61.30;100083.94;4955402;28;7037;-74
2023/09/01 03:08:32;;;;;;;;;;;;;;;18.97;61.94;100083.94;4958559;28;7162;-73
2023/09/01 03:10:57;;;;;;;;;;;;;;;18.99;62.10;100095.19;4944461;28;8607;-74
2023/09/01 03:13:22;;;;;;;;;;;;;;;19.03;62.19;100087.50;4956300;28;6792;-73
2023/09/01 03:15:48;;;;;;;;;;;;;;;19.06;61.87;100090.97;4933072;28;6950;-74
2023/09/01 03:18:14;;;;;;;;;;;;;;;19.09;61.64;100087.53;4976745;28;7161;-74
2023/09/01 03:20:40;;;;;;;;;;;;;;;19.13;61.65;100091.91;4942576;28;6800;-74
2023/09/01 03:23:05;;;;;;;;;;;;;;;19.18;62.11;100092.78;4956634;28;7045;-72
2023/09/01 03:25:31;;;;;;;;;;;;;;;19.23;61.62;100090.22;4960444;28;6975;-73
2023/09/01 03:27:56;;;;;;;;;;;;;;;19.27;61.92;100087.66;4944776;28;6919;-72
2023/09/01 03:30:22;;;;;;;;;;;;;;;19.29;61.65;100088.53;4974862;28;6975;-73
2023/09/01 03:32:47;;;;;;;;;;;;;;;19.31;61.68;100088.56;4945384;28;6907;-72
2023/09/01 03:35:12;;;;;;;;;;;;;;;19.32;61.28;100086.84;4927860;28;7194;-74
2023/09/01 03:37:38;;;;;;;;;;;;;;;19.32;61.80;100086.84;4937712;28;7210;-74
2023/09/01 03:40:14;;;;;;;;;;;;;;;19.32;61.52;100090.28;4939994;28;6947;-74
2023/09/01 03:42:39;;;;;;;;;;;;;;;19.32;62.30;100090.28;4938123;28;9036;-73
2023/09/01 03:45:05;;;;;;;;;;;;;;;19.34;61.68;100080.78;4941439;28;7244;-73
2023/09/01 03:47:31;;;;;;;;;;;;;;;19.36;62.28;100075.59;4959657;28;6828;-74
2023/09/01 03:49:57;;;;;;;;;;;;;;;19.38;62.12;100084.25;4955244;28;7185;-73
2023/09/01 03:52:22;;;;;;;;;;;;;;;19.39;61.77;100084.28;4975026;28;6811;-74
2023/09/01 03:54:48;;;;;;;;;;;;;;;19.41;62.08;100081.69;4938482;28;7234;-73
2023/09/01 03:57:15;;;;;;;;;;;;;;;19.43;61.90;100082.59;4975257;28;6795;-74
2023/09/01 03:59:41;;;;;;;;;;;;;;;19.46;62.04;100084.31;4940879;28;7825;-74
2023/09/01 04:02:06;;;;;;;;;;;;;;;19.47;61.70;100083.47;4954687;28;6792;-73
2023/09/01 04:04:32;;;;;;;;;;;;;;;19.47;61.99;100075.69;4952559;28;6795;-74
2023/09/01 04:06:57;;;;;;;;;;;;;;;19.47;62.21;100067.88;4958240;28;6784;-74
2023/09/01 04:09:23;;;;;;;;;;;;;;;19.48;61.86;100065.28;4934186;28;7173;-74
2023/09/01 04:11:48;;;;;;;;;;;;;;;19.50;62.05;100070.50;4976263;28;6788;-73
2023/09/01 04:14:14;;;;;;;;;;;;;;;19.52;61.91;100068.75;4975027;28;7228;-74
2023/09/01 04:16:40;;;;;;;;;;;;;;;19.53;61.63;100065.31;4938886;28;7885;-74
2023/09/01 04:19:05;;;;;;;;;;;;;;;19.53;62.04;100073.09;4953058;28;6804;-74
2023/09/01 04:21:31;;;;;;;;;;;;;;;19.53;61.54;100063.59;4944534;28;6930;-73
2023/09/01 04:23:56;;;;;;;;;;;;;;;19.54;61.64;100065.31;4945144;28;7189;-74
2023/09/01 04:26:22;;;;;;;;;;;;;;;19.54;62.21;100067.91;4958187;28;7240;-74
2023/09/01 04:28:47;;;;;;;;;;;;;;;19.54;62.03;100069.63;4957538;28;8491;-74
2023/09/01 04:31:26;;;;;;;;;;;;;;;19.55;62.18;100061.84;4934368;28;6962;-74
2023/09/01 04:33:51;;;;;;;;;;;;;;;19.54;61.92;100062.72;4941552;28;7011;-73
2023/09/01 04:36:17;;;;;;;;;;;;;;;19.56;62.17;100063.59;4938350;28;6796;-74
2023/09/01 04:38:42;;;;;;;;;;;;;;;19.57;61.94;100059.28;4937989;28;6970;-74
2023/09/01 04:41:08;;;;;;;;;;;;;;;19.56;62.16;100049.75;4944304;28;7250;-74
2023/09/01 04:43:33;;;;;;;;;;;;;;;19.54;61.63;100051.44;4936442;28;6792;-73
2023/09/01 04:45:59;;;;;;;;;;;;;;;19.50;62.05;100052.31;4957855;28;6807;-74
2023/09/01 04:48:25;;;;;;;;;;;;;;;19.46;61.65;100051.41;4938314;28;7138;-74
2023/09/01 04:50:50;;;;;;;;;;;;;;;19.42;61.90;100055.72;4935793;28;8484;-73
2023/09/01 04:53:17;;;;;;;;;;;;;;;19.38;62.03;100059.16;4951292;28;6980;-72
2023/09/01 04:55:43;;;;;;;;;;;;;;;19.35;61.86;100053.06;4975147;28;7988;-74
2023/09/01 04:58:08;;;;;;;;;;;;;;;19.34;62.15;100061.72;4968886;28;8024;-76
2023/09/01 05:00:34;;;;;;;;;;;;;;;19.33;61.86;100063.44;4937626;28;7067;-76
2023/09/01 05:03:01;;;;;;;;;;;;;;;19.35;62.27;100076.47;4936044;28;7051;-73
2023/09/01 05:05:27;;;;;;;;;;;;;;;19.36;62.25;100073.00;4972580;28;7118;-74
2023/09/01 05:07:52;;;;;;;;;;;;;;;19.37;62.24;100073.03;4941758;28;6825;-75
2023/09/01 05:10:18;;;;;;;;;;;;;;;19.40;62.62;100077.34;4944971;28;7187;-75
2023/09/01 05:12:43;;;;;;;;;;;;;;;19.43;62.42;100072.19;4939567;28;7102;-74
2023/09/01 05:15:09;;;;;;;;;;;;;;;19.48;62.42;100077.41;4968548;28;6787;-74
2023/09/01 05:17:34;;;;;;;;;;;;;;;19.52;62.17;100082.63;4959083;28;10354;-73
2023/09/01 05:20:00;;;;;;;;;;;;;;;19.56;62.14;100081.78;4961443;28;7035;-76
2023/09/01 05:22:25;;;;;;;;;;;;;;;19.61;62.44;100084.41;4946888;28;7243;-72
2023/09/01 05:24:53;;;;;;;;;;;;;;;19.65;63.01;100074.91;4941577;28;6978;-76
2023/09/01 05:27:19;;;;;;;;;;;;;;;19.68;62.72;100070.59;4972113;28;6829;-74
2023/09/01 05:29:47;;;;;;;;;;;;;;;19.73;62.40;100068.03;4945105;28;6812;-76
2023/09/01 05:32:15;;;;;;;;;;;;;;;19.77;62.34;100072.34;4943252;28;7195;-75
2023/09/01 05:34:40;;;;;;;;;;;;;;;19.81;62.86;100065.44;4941634;28;6808;-75
2023/09/01 05:37:07;;;;;;;;;;;;;;;19.84;62.75;100068.94;4943238;28;6954;-74
2023/09/01 05:39:34;;;;;;;;;;;;;;;19.89;62.65;100065.47;4975272;28;6934;-75
2023/09/01 05:42:00;;;;;;;;;;;;;;;19.92;62.33;100060.31;4940373;28;7278;-76
2023/09/01 05:44:25;;;;;;;;;;;;;;;19.96;62.47;100064.66;4942463;28;6966;-75
2023/09/01 05:46:51;;;;;;;;;;;;;;;19.98;62.33;100063.81;4942836;28;6780;-75
2023/09/01 05:49:16;;;;;;;;;;;;;;;20.02;62.55;100059.50;4957836;28;7134;-75
2023/09/01 05:51:42;;;;;;;;;;;;;;;20.04;62.41;100060.38;4936878;28;6915;-75
2023/09/01 05:54:07;;;;;;;;;;;;;;;20.08;62.42;100063.84;4978258;28;6792;-74
2023/09/01 05:56:32;;;;;;;;;;;;;;;20.09;62.48;100063.88;4942506;28;6876;-75
2023/09/01 05:58:58;;;;;;;;;;;;;;;20.12;62.44;100063.00;4943269;28;6796;-75
2023/09/01 06:01:23;;;;;;;;;;;;;;;20.12;62.09;100063.00;4942438;28;6829;-75
2023/09/01 06:03:49;;;;;;;;;;;;;;;20.17;62.51;100071.69;4976917;28;6979;-75
2023/09/01 06:06:14;;;;;;;;;;;;;;;20.19;62.65;100075.16;4944440;28;6852;-74
2023/09/01 06:08:40;;;;;;;;;;;;;;;20.23;62.30;100078.66;4974612;28;6796;-74
2023/09/01 06:11:08;;;;;;;;;;;;;;;20.27;62.33;100077.78;4945379;28;6784;-73
2023/09/01 06:13:34;;;;;;;;;;;;;;;20.30;62.52;100077.81;4959615;28;6800;-75
2023/09/01 06:16:02;;;;;;;;;;;;;;;20.34;62.53;100082.13;4943865;28;6969;-74
2023/09/01 06:18:28;;;;;;;;;;;;;;;20.38;62.54;100093.44;4942417;28;6800;-76
2023/09/01 06:20:53;;;;;;;;;;;;;;;20.39;62.28;100089.97;4954849;28;6788;-72
2023/09/01 06:23:19;;;;;;;;;;;;;;;20.39;62.10;100095.16;4933964;28;6791;-74
2023/09/01 06:25:44;;;;;;;;;;;;;;;20.38;62.15;100093.44;4937355;28;6911;-72
2023/09/01 06:28:09;;;;;;;;;;;;;;;20.35;62.28;100089.09;4954010;28;6963;-75
2023/09/01 06:30:36;;;;;;;;;;;;;;;20.31;62.57;100092.56;4937325;28;7042;-74
2023/09/01 06:33:03;;;;;;;;;;;;;;;20.28;62.64;100089.94;4938153;28;6808;-74
2023/09/01 06:35:29;;;;;;;;;;;;;;;20.26;62.85;100086.44;4941102;28;6816;-75
2023/09/01 06:37:54;;;;;;;;;;;;;;;20.23;63.13;100083.84;4957653;28;6792;-75
2023/09/01 06:40:20;;;;;;;;;;;;;;;20.21;62.51;100090.78;4943395;28;7221;-75
2023/09/01 06:42:46;;;;;;;;;;;;;;;20.18;63.02;100085.56;4954097;28;7112;-75
2023/09/01 06:45:12;;;;;;;;;;;;;;;20.17;62.91;100081.22;4975409;28;7016;-74
2023/09/01 06:47:37;;;;;;;;;;;;;;;20.16;63.02;100084.69;4958819;28;8116;-75
2023/09/01 06:50:03;;;;;;;;;;;;;;;20.15;63.24;100082.94;4976482;28;6995;-76
2023/09/01 06:52:28;;;;;;;;;;;;;;;20.14;63.30;100074.28;4939202;28;7222;-76
2023/09/01 06:54:54;;;;;;;;;;;;;;;20.16;63.43;100072.56;4939166;28;6946;-74
2023/09/01 06:57:19;;;;;;;;;;;;;;;20.15;63.21;100077.75;4937205;28;7087;-76
2023/09/01 06:59:45;;;;;;;;;;;;;;;20.17;63.45;100070.81;4953479;28;7031;-75
2023/09/01 07:02:10;;;;;;;;;;;;;;;20.18;63.60;100065.63;4955570;28;7159;-74
2023/09/01 07:04:36;;;;;;;;;;;;;;;20.21;63.55;100064.78;4958372;28;6791;-75
2023/09/01 07:07:01;;;;;;;;;;;;;;;20.22;63.22;100064.75;4942512;28;6788;-75
2023/09/01 07:09:27;;;;;;;;;;;;;;;20.24;63.29;100064.78;4939124;28;6765;-69
2023/09/01 07:11:52;;;;;;;;;;;;;;;20.23;63.45;100068.25;4938313;28;6849;-69
2023/09/01 07:14:18;;;;;;;;;;;;;;;20.20;63.26;100071.69;4943757;28;6792;-69
2023/09/01 07:16:43;;;;;;;;;;;;;;;20.16;63.51;100069.06;4969988;28;7351;-71
2023/09/01 07:19:09;;;;;;;;;;;;;;;20.13;63.55;100069.94;4939768;28;7163;-70
2023/09/01 07:21:34;;;;;;;;;;;;;;;20.11;64.07;100069.06;4937981;28;6953;-71
2023/09/01 07:23:59;;;;;;;;;;;;;;;20.09;63.69;100083.81;4954122;28;6804;-71
2023/09/01 07:26:25;;;;;;;;;;;;;;;20.06;63.60;100084.66;4973751;28;6783;-71
2023/09/01 07:28:50;;;;;;;;;;;;;;;20.05;64.11;100082.06;4959482;28;6965;-70
2023/09/01 07:31:16;;;;;;;;;;;;;;;20.00;63.92;100084.66;4939494;28;7254;-70
2023/09/01 07:33:42;;;;;;;;;;;;;;;19.96;63.28;100082.88;4955572;28;6776;-71
2023/09/01 07:36:10;;;;;;;;;;;;;;;19.93;63.90;100077.66;4961766;28;6935;-71
2023/09/01 07:38:36;;;;;;;;;;;;;;;19.90;64.28;100080.25;4937276;28;6996;-72
2023/09/01 07:41:03;;;;;;;;;;;;;;;19.87;63.94;100082.81;4938912;28;6893;-71
2023/09/01 07:43:28;;;;;;;;;;;;;;;19.83;64.41;100082.81;4934155;28;6792;-72
2023/09/01 07:45:54;;;;;;;;;;;;;;;19.79;63.99;100075.81;4943372;28;6871;-72
2023/09/01 07:48:19;;;;;;;;;;;;;;;19.80;64.39;100080.19;4941747;28;6791;-72
2023/09/01 07:50:46;;;;;;;;;;;;;;;19.83;64.87;100080.19;4937149;28;7011;-72
2023/09/01 07:53:11;;;;;;;;;;;;;;;19.85;64.69;100078.47;4936863;28;7420;-71
2023/09/01 07:55:37;;;;;;;;;;;;;;;19.90;64.79;100078.50;4941032;28;6992;-72
2023/09/01 07:58:03;;;;;;;;;;;;;;;19.94;64.98;100080.28;4933063;28;6787;-72
2023/09/01 08:00:28;;;;;;;;;;;;;;;19.98;64.94;100081.16;4942398;28;7151;-72
2023/09/01 08:02:55;;;;;;;;;;;;;;;20.01;64.99;100073.38;4953394;28;8054;-72
2023/09/01 08:05:21;;;;;;;;;;;;;;;20.07;65.06;100075.13;4946056;28;7572;-72
2023/09/01 08:07:46;;;;;;;;;;;;;;;20.12;65.24;100073.41;4957281;28;6798;-71
2023/09/01 08:10:12;;;;;;;;;;;;;;;20.16;65.32;100079.47;4939528;28;6792;-71
2023/09/01 08:12:38;;;;;;;;;;;;;;;20.20;65.39;100079.50;4938694;28;7243;-71
2023/09/01 08:15:04;;;;;;;;;;;;;;;20.26;65.27;100084.72;4953148;28;6928;-72
2023/09/01 08:17:29;;;;;;;;;;;;;;;20.31;65.84;100081.25;4940544;28;7869;-72
2023/09/01 08:19:55;;;;;;;;;;;;;;;20.36;65.72;100085.59;4937042;28;6776;-72
2023/09/01 08:22:20;;;;;;;;;;;;;;;20.39;65.10;100083.03;4974298;28;6850;-72
2023/09/01 08:24:46;;;;;;;;;;;;;;;20.39;65.26;100083.03;4941557;28;7188;-72
2023/09/01 08:27:11;;;;;;;;;;;;;;;20.39;65.16;100095.16;4957431;28;6860;-72
2023/09/01 08:29:38;;;;;;;;;;;;;;;20.38;64.87;100096.91;4975424;28;6902;-72
2023/09/01 08:32:05;;;;;;;;;;;;;;;20.35;65.02;100102.09;4939952;28;6800;-71
2023/09/01 08:34:31;;;;;;;;;;;;;;;20.33;65.38;100087.34;4941523;28;7205;-71
2023/09/01 08:36:56;;;;;;;;;;;;;;;20.31;65.09;100099.47;4931329;28;7290;-70
2023/09/01 08:39:22;;;;;;;;;;;;;;;20.31;65.62;100105.56;4937468;28;7094;-71
2023/09/01 08:41:49;;;;;;;;;;;;;;;20.31;65.48;100105.56;4954841;28;6792;-71
2023/09/01 08:44:14;;;;;;;;;;;;;;;20.35;65.79;100117.72;4938781;28;6882;-70
2023/09/01 08:46:40;;;;;;;;;;;;;;;20.39;65.56;100121.19;4959111;28;7216;-71
2023/09/01 08:49:08;;;;;;;;;;;;;;;20.41;65.59;100122.06;4972095;28;6807;-71
2023/09/01 08:51:35;;;;;;;;;;;;;;;20.38;65.81;100128.16;4939647;28;6998;-70
2023/09/01 08:54:00;;;;;;;;;;;;;;;20.37;65.72;100122.94;4977439;28;6799;-71
2023/09/01 08:56:26;;;;;;;;;;;;;;;20.38;65.86;100128.16;4943865;28;6963;-71
2023/09/01 08:58:51;;;;;;;;;;;;;;;20.39;65.71;100124.69;4943852;28;6848;-71
2023/09/01 09:01:17;;;;;;;;;;;;;;;20.43;66.04;100127.28;4944375;28;6865;-71
2023/09/01 09:03:42;;;;;;;;;;;;;;;20.44;65.50;100135.09;4958192;28;7075;-70
2023/09/01 09:06:12;;;;;;;;;;;;;;;20.42;65.37;100138.56;4944035;28;6909;-70
2023/09/01 09:08:38;;;;;;;;;;;;;;;20.40;65.73;100126.41;4958905;28;7140;-71
2023/09/01 09:11:13;;;;;;;;;;;;;;;20.42;65.96;100135.97;4943855;28;7319;-71
2023/09/01 09:13:40;;;;;;;;;;;;;;;20.45;65.83;100130.75;4955874;28;7190;-71
2023/09/01 09:16:08;;;;;;;;;;;;;;;20.50;66.18;100131.66;4975800;28;6804;-71
2023/09/01 09:18:34;;;;;;;;;;;;;;;20.58;65.84;100137.75;4942701;28;6999;-71
2023/09/01 09:20:59;;;;;;;;;;;;;;;20.66;66.67;100143.81;4943982;28;7068;-71
2023/09/01 09:23:45;;;;;;;;;;;;;;;20.73;66.29;100139.50;4957692;28;8476;-71
2023/09/01 09:26:11;;;;;;;;;;;;;;;20.76;66.13;100149.03;4945531;28;6800;-71
2023/09/01 09:28:37;;;;;;;;;;;;;;;20.77;65.89;100141.25;4975343;28;6808;-72
2023/09/01 09:31:02;;;;;;;;;;;;;;;20.77;66.19;100150.81;4939640;28;7203;-71
2023/09/01 09:33:33;;;;;;;;;;;;;;;20.81;66.22;100149.94;4945398;28;6975;-71
2023/09/01 09:35:59;;;;;;;;;;;;;;;20.86;66.08;100143.03;4956528;28;7105;-71
2023/09/01 09:38:44;;;;;;;;;;;;;;;20.95;66.45;100139.56;4945929;28;6887;-71
2023/09/01 09:41:09;;;;;;;;;;;;;;;21.06;66.82;100143.03;4954528;28;6808;-71
2023/09/01 09:43:50;;;;;;;;;;;;;;;21.22;67.10;100143.91;4927444;28;6930;-71
2023/09/01 09:46:16;;;;;;;;;;;;;;;21.37;67.20;100137.81;4944557;28;7066;-71
2023/09/01 09:48:43;;;;;;;;;;;;;;;21.57;67.53;100136.09;4940402;28;7111;-71
2023/09/01 09:51:10;;;;;;;;;;;;;;;21.78;67.38;100127.38;4943574;28;7423;-71
2023/09/01 09:53:37;;;;;;;;;;;;;;;21.98;67.71;100135.13;4941436;28;6982;-71
2023/09/01 09:56:18;;;;;;;;;;;;;;;22.09;67.03;100131.59;4960006;28;6888;-71
2023/09/01 09:58:46;;;;;;;;;;;;;;;22.19;67.49;100136.78;4957413;28;6924;-71
2023/09/01 10:01:22;;;;;;;;;;;;;;;22.29;67.08;100136.75;4958421;28;7231;-71
2023/09/01 10:03:47;;;;;;;;;;;;;;;22.38;67.09;100135.84;4973312;28;7292;-72
2023/09/01 10:06:16;;;;;;;;;;;;;;;22.40;66.69;100132.34;4938515;28;7177;-72
2023/09/01 10:08:43;;;;;;;;;;;;;;;22.38;66.88;100128.88;4958465;28;7007;-72
2023/09/01 10:11:11;;;;;;;;;;;;;;;22.35;66.28;100134.09;4975416;28;7154;-71
2023/09/01 10:13:38;;;;;;;;;;;;;;;22.30;66.19;100136.72;4971733;28;7307;-72
2023/09/01 10:16:05;;;;;;;;;;;;;;;22.24;66.32;100131.56;4944303;28;6984;-72
2023/09/01 10:18:31;;;;;;;;;;;;;;;22.19;66.67;100135.91;4975983;28;7044;-71
2023/09/01 10:20:56;;;;;;;;;;;;;;;22.19;67.03;100133.31;4924963;28;6980;-72
2023/09/01 10:23:22;;;;;;;;;;;;;;;22.19;66.59;100130.69;4973635;28;6772;-72
2023/09/01 10:26:17;;;;;;;;;;;;;;;22.16;66.73;100135.94;4939224;28;7365;-71
2023/09/01 10:28:54;;;;;;;;;;;;;;;22.08;66.22;100142.94;4941863;28;6903;-72
2023/09/01 10:31:20;;;;;;;;;;;;;;;22.01;66.73;100136.88;4974084;28;6859;-72
2023/09/01 10:33:46;;;;;;;;;;;;;;;21.98;66.66;100135.13;4940545;28;6784;-72
2023/09/01 10:36:14;;;;;;;;;;;;;;;21.98;67.09;100144.72;4939276;28;6779;-72
2023/09/01 10:38:40;;;;;;;;;;;;;;;21.98;66.63;100135.13;4959846;28;6831;-72
2023/09/01 10:41:06;;;;;;;;;;;;;;;21.98;66.95;100137.75;4940479;28;7221;-71
2023/09/01 10:43:37;;;;;;;;;;;;;;;21.97;66.83;100129.91;4933049;28;7561;-71
2023/09/01 10:46:12;;;;;;;;;;;;;;;21.97;66.96;100132.50;4955705;28;7040;-71
2023/09/01 10:48:52;;;;;;;;;;;;;;;21.97;67.12;100130.78;4960945;28;7171;-70
2023/09/01 10:51:18;;;;;;;;;;;;;;;22.02;67.35;100136.88;4934510;28;7305;-72
2023/09/01 10:53:45;;;;;;;;;;;;;;;22.08;67.18;100135.09;4943585;28;6804;-72
2023/09/01 10:56:15;;;;;;;;;;;;;;;22.10;67.44;100134.22;4948759;28;7223;-72
2023/09/01 10:58:43;;;;;;;;;;;;;;;22.11;67.11;100133.34;4940580;28;6983;-73
2023/09/01 11:01:31;;;;;;;;;;;;;;;22.15;67.33;100122.00;4944134;28;6795;-73
2023/09/01 11:04:17;;;;;;;;;;;;;;;22.17;67.21;100115.06;4955539;28;7306;-74
2023/09/01 11:07:01;;;;;;;;;;;;;;;22.23;67.27;100119.38;4944587;28;7266;-73
2023/09/01 11:09:35;;;;;;;;;;;;;;;22.26;67.19;100116.75;4960694;28;7184;-75
2023/09/01 11:12:06;;;;;;;;;;;;;;;22.29;67.58;100115.88;4943696;28;6804;-75
2023/09/01 11:14:32;;;;;;;;;;;;;;;22.33;67.43;100118.47;4957272;28;7126;-74
2023/09/01 11:17:00;;;;;;;;;;;;;;;22.38;67.52;100117.56;4942016;28;7083;-74
2023/09/01 11:19:26;;;;;;;;;;;;;;;22.42;67.67;100114.06;4932390;28;7431;-75
2023/09/01 11:21:53;;;;;;;;;;;;;;;22.46;67.44;100107.94;4957298;28;6792;-74
2023/09/01 11:24:22;;;;;;;;;;;;;;;22.51;67.10;100113.16;4960407;28;6808;-74
2023/09/01 11:26:49;;;;;;;;;;;;;;;22.54;67.71;100103.59;4960332;28;7050;-74
2023/09/01 11:29:15;;;;;;;;;;;;;;;22.63;67.17;100107.00;4958915;28;7087;-74
2023/09/01 11:31:43;;;;;;;;;;;;;;;22.65;67.13;100106.13;4953215;28;7048;-74
2023/09/01 11:34:08;;;;;;;;;;;;;;;22.70;67.09;100111.31;4961056;28;6796;-74
2023/09/01 11:36:44;;;;;;;;;;;;;;;22.71;66.87;100102.59;4934713;28;6856;-73
2023/09/01 11:39:09;;;;;;;;;;;;;;;22.71;67.00;100107.84;4954626;28;7147;-74
2023/09/01 11:41:35;;;;;;;;;;;;;;;22.72;66.94;100110.41;4975249;28;8937;-74
2023/09/01 11:44:01;;;;;;;;;;;;;;;22.71;66.69;100113.06;4972006;28;7086;-74
2023/09/01 11:46:32;;;;;;;;;;;;;;;22.68;66.73;100111.31;4940787;28;6980;-74
2023/09/01 11:48:57;;;;;;;;;;;;;;;22.65;66.76;100115.69;4955428;28;7092;-74
2023/09/01 11:51:33;;;;;;;;;;;;;;;22.59;66.65;100117.47;4957024;28;6804;-74
2023/09/01 11:53:59;;;;;;;;;;;;;;;22.55;66.86;100114.88;4940674;28;7100;-75
2023/09/01 11:56:24;;;;;;;;;;;;;;;22.53;66.64;100116.63;4965545;28;7345;-74
2023/09/01 11:59:01;;;;;;;;;;;;;;;22.53;66.49;100116.63;4943813;28;6959;-74
2023/09/01 12:01:37;;;;;;;;;;;;;;;22.50;66.53;100117.50;4939409;28;6869;-74
2023/09/01 12:04:07;;;;;;;;;;;;;;;22.49;66.42;100126.22;4955183;28;6981;-74
2023/09/01 12:06:46;;;;;;;;;;;;;;;22.43;66.52;100121.88;4960429;28;7134;-74
2023/09/01 12:09:18;;;;;;;;;;;;;;;22.40;66.32;100127.13;4949804;28;7012;-74
2023/09/01 12:11:59;;;;;;;;;;;;;;;22.34;66.44;100132.38;4927154;28;7014;-74
2023/09/01 12:14:29;;;;;;;;;;;;;;;22.30;66.38;100128.06;4938413;28;7068;-74
2023/09/01 12:16:55;;;;;;;;;;;;;;;22.26;66.29;100126.31;4955892;28;7169;-74
2023/09/01 12:19:24;;;;;;;;;;;;;;;22.24;66.56;100128.06;4957651;28;6792;-74
2023/09/01 12:21:54;;;;;;;;;;;;;;;22.26;66.47;100119.38;4941575;28;7159;-75
2023/09/01 12:24:20;;;;;;;;;;;;;;;22.26;66.98;100119.38;4939136;28;6852;-74
2023/09/01 12:26:48;;;;;;;;;;;;;;;22.30;66.92;100121.06;4939736;28;7099;-74
2023/09/01 12:29:14;;;;;;;;;;;;;;;22.34;66.89;100124.53;4959543;28;6800;-74
2023/09/01 12:31:39;;;;;;;;;;;;;;;22.34;67.06;100120.19;4941542;28;6776;-74
2023/09/01 12:34:05;;;;;;;;;;;;;;;22.38;66.72;100135.84;4953216;28;6987;-75
2023/09/01 12:36:31;;;;;;;;;;;;;;;22.33;65.92;100131.50;4949900;28;6992;-75
2023/09/01 12:38:56;;;;;;;;;;;;;;;22.25;66.07;100128.06;4941960;28;6809;-75
2023/09/01 12:41:22;;;;;;;;;;;;;;;22.21;66.59;100134.16;4939675;28;6811;-74
2023/09/01 12:43:48;;;;;;;;;;;;;;;22.27;67.34;100151.56;4937246;28;6967;-74
2023/09/01 12:46:13;;;;;;;;;;;;;;;22.36;67.47;100150.63;4959357;28;7091;-75
2023/09/01 12:48:39;;;;;;;;;;;;;;;22.53;68.17;100145.34;4934304;28;6940;-75